PWSweather.com
Personal Weather Stations
Station Observations
AC5CV
Greenleaf Peninsula, Waco, TX 76710

Greenleaf PeninsulaWaco, TX 76710

Lat: 31.565, Lon: -97.198

Elevation: 570

Station Type: Ambient WS2080

http://johnchamber.dyndns.info/

High Low Average
Temperature 84.2°F29.0°C 70.2°F21.2°C 75.5°F24.2°C
Dew Point 73.3°F22.9°C 68.5°F20.3°C 70.8°F21.6°C
Winds 9.7 mph 15.6 kmh Calm Calm 3.0 mph SSE4.8 kmh SSE
Wind Gusts 19.9 mph32.0 kmh -- 6.0 mph9.7 kmh
Humidity 97% 66% 86%
Pressure 29.55 in1000.7 mb 29.31 in992.6 mb -
Precipitation 1.11 in28.2 mm - -
Hour Temp Dew Point Humidity Winds Wind Gusts Pressure Precip Precip Rate Daily Precip Total
12:00 AM 86.0°F30.0°C 72.4°F22.4°C 64% 6.0 mph SSE9.7 kmh SSE 9.8 mph15.8 kmh 29.30 in992.2 mb 0.00 in0.0 mm 0.00 in0.0 mm 0.00 in0.0 mm
12:05 AM 86.0°F30.0°C 72.7°F22.6°C 65% 4.2 mph SSE6.8 kmh SSE 7.4 mph11.9 kmh 29.30 in992.2 mb 0.00 in0.0 mm 0.00 in0.0 mm 0.00 in0.0 mm
12:10 AM 85.6°F29.8°C 72.4°F22.4°C 65% 4.8 mph SE7.7 kmh SE 9.8 mph15.8 kmh 29.30 in992.2 mb 0.00 in0.0 mm 0.00 in0.0 mm 0.00 in0.0 mm
12:15 AM 85.5°F29.7°C 72.4°F22.4°C 65% 3.5 mph S5.6 kmh S 9.8 mph15.8 kmh 29.30 in992.2 mb 0.00 in0.0 mm 0.00 in0.0 mm 0.00 in0.0 mm
12:20 AM 85.5°F29.7°C 72.4°F22.4°C 65% 4.0 mph SSE6.4 kmh SSE 9.8 mph15.8 kmh 29.30 in992.2 mb 0.00 in0.0 mm 0.00 in0.0 mm 0.00 in0.0 mm
12:25 AM 85.3°F29.6°C 72.6°F22.6°C 66% 5.2 mph SSE8.4 kmh SSE 9.8 mph15.8 kmh 29.30 in992.2 mb 0.00 in0.0 mm 0.00 in0.0 mm 0.00 in0.0 mm
12:30 AM 84.7°F29.3°C 72.1°F22.3°C 66% 5.8 mph S9.3 kmh S 9.8 mph15.8 kmh 29.30 in992.2 mb 0.00 in0.0 mm 0.00 in0.0 mm 0.00 in0.0 mm
12:35 AM 84.7°F29.3°C 72.1°F22.3°C 66% 4.1 mph SSE6.6 kmh SSE 9.8 mph15.8 kmh 29.30 in992.2 mb 0.00 in0.0 mm 0.00 in0.0 mm 0.00 in0.0 mm
12:40 AM 84.6°F29.2°C 72.0°F22.2°C 66% 3.9 mph S6.3 kmh S 9.8 mph15.8 kmh 29.30 in992.2 mb 0.00 in0.0 mm 0.00 in0.0 mm 0.00 in0.0 mm
12:45 AM 84.6°F29.2°C 72.1°F22.3°C 66% 6.7 mph SSE10.8 kmh SSE 12.3 mph19.8 kmh 29.31 in992.6 mb 0.00 in0.0 mm 0.00 in0.0 mm 0.00 in0.0 mm
12:50 AM 84.4°F29.1°C 72.2°F22.3°C 67% 4.1 mph SSE6.6 kmh SSE 9.8 mph15.8 kmh 29.31 in992.6 mb 0.00 in0.0 mm 0.00 in0.0 mm 0.00 in0.0 mm
12:55 AM 84.2°F29.0°C 72.6°F22.6°C 68% 3.4 mph SSE5.5 kmh SSE 7.4 mph11.9 kmh 29.31 in992.6 mb 0.00 in0.0 mm 0.00 in0.0 mm 0.00 in0.0 mm
01:00 AM 84.2°F29.0°C 72.9°F22.7°C 69% 4.6 mph SSE7.4 kmh SSE 7.4 mph11.9 kmh 29.32 in992.9 mb 0.00 in0.0 mm 0.00 in0.0 mm 0.00 in0.0 mm
01:05 AM 84.2°F29.0°C 72.9°F22.7°C 69% 4.0 mph SE6.4 kmh SE 7.4 mph11.9 kmh 29.31 in992.6 mb 0.00 in0.0 mm 0.00 in0.0 mm 0.00 in0.0 mm
01:10 AM 83.6°F28.7°C 72.6°F22.6°C 70% 3.5 mph SSE5.6 kmh SSE 12.3 mph19.8 kmh 29.32 in992.9 mb 0.00 in0.0 mm 0.00 in0.0 mm 0.00 in0.0 mm
01:15 AM 83.5°F28.6°C 72.7°F22.6°C 70% 3.5 mph SE5.6 kmh SE 7.4 mph11.9 kmh 29.32 in992.9 mb 0.00 in0.0 mm 0.00 in0.0 mm 0.00 in0.0 mm
01:20 AM 83.5°F28.6°C 72.9°F22.7°C 71% 4.2 mph SSE6.8 kmh SSE 7.4 mph11.9 kmh 29.32 in992.9 mb 0.00 in0.0 mm 0.00 in0.0 mm 0.00 in0.0 mm
01:25 AM 83.5°F28.6°C 73.0°F22.8°C 71% 3.3 mph SSE5.3 kmh SSE 9.8 mph15.8 kmh 29.32 in992.9 mb 0.00 in0.0 mm 0.00 in0.0 mm 0.00 in0.0 mm
01:30 AM 83.1°F28.4°C 72.8°F22.7°C 71% 3.8 mph SE6.1 kmh SE 7.4 mph11.9 kmh 29.32 in992.9 mb 0.00 in0.0 mm 0.00 in0.0 mm 0.00 in0.0 mm
01:35 AM 83.0°F28.3°C 73.0°F22.8°C 72% 3.6 mph S5.8 kmh S 7.4 mph11.9 kmh 29.32 in992.9 mb 0.00 in0.0 mm 0.00 in0.0 mm 0.00 in0.0 mm
01:40 AM 82.9°F28.3°C 72.9°F22.7°C 72% 3.6 mph SE5.8 kmh SE 9.8 mph15.8 kmh 29.32 in992.9 mb 0.00 in0.0 mm 0.00 in0.0 mm 0.00 in0.0 mm
01:45 AM 82.9°F28.3°C 72.9°F22.7°C 72% 3.6 mph SSE5.8 kmh SSE 9.8 mph15.8 kmh 29.32 in992.9 mb 0.00 in0.0 mm 0.00 in0.0 mm 0.00 in0.0 mm
01:50 AM 82.8°F28.2°C 72.8°F22.7°C 72% 3.3 mph SE5.3 kmh SE 7.4 mph11.9 kmh 29.32 in992.9 mb 0.00 in0.0 mm 0.00 in0.0 mm 0.00 in0.0 mm
01:55 AM 82.6°F28.1°C 72.8°F22.7°C 72% 3.9 mph SSE6.3 kmh SSE 7.4 mph11.9 kmh 29.32 in992.9 mb 0.00 in0.0 mm 0.00 in0.0 mm 0.00 in0.0 mm
02:00 AM 82.6°F28.1°C 73.0°F22.8°C 73% 5.0 mph S8.0 kmh S 9.8 mph15.8 kmh 29.32 in992.9 mb 0.00 in0.0 mm 0.00 in0.0 mm 0.00 in0.0 mm
02:05 AM 82.6°F28.1°C 73.0°F22.8°C 73% 4.8 mph SE7.7 kmh SE 7.4 mph11.9 kmh 29.32 in992.9 mb 0.00 in0.0 mm 0.00 in0.0 mm 0.00 in0.0 mm
02:10 AM 82.3°F27.9°C 72.7°F22.6°C 73% 4.9 mph SE7.9 kmh SE 7.4 mph11.9 kmh 29.32 in992.9 mb 0.00 in0.0 mm 0.00 in0.0 mm 0.00 in0.0 mm
02:15 AM 82.2°F27.9°C 72.7°F22.6°C 73% 2.8 mph S4.5 kmh S 7.4 mph11.9 kmh 29.33 in993.2 mb 0.00 in0.0 mm 0.00 in0.0 mm 0.00 in0.0 mm
02:20 AM 82.2°F27.9°C 73.1°F22.8°C 74% 2.3 mph S3.7 kmh S 4.9 mph7.9 kmh 29.33 in993.2 mb 0.00 in0.0 mm 0.00 in0.0 mm 0.00 in0.0 mm
02:25 AM 82.1°F27.8°C 72.9°F22.7°C 74% 3.6 mph SSE5.8 kmh SSE 7.4 mph11.9 kmh 29.34 in993.6 mb 0.00 in0.0 mm 0.00 in0.0 mm 0.00 in0.0 mm
02:30 AM 81.7°F27.6°C 72.5°F22.5°C 74% 2.6 mph S4.2 kmh S 4.9 mph7.9 kmh 29.33 in993.2 mb 0.00 in0.0 mm 0.00 in0.0 mm 0.00 in0.0 mm
02:35 AM 81.5°F27.5°C 72.5°F22.5°C 74% 2.3 mph S3.7 kmh S 4.9 mph7.9 kmh 29.32 in992.9 mb 0.00 in0.0 mm 0.00 in0.0 mm 0.00 in0.0 mm
02:40 AM 81.5°F27.5°C 72.8°F22.7°C 75% 1.2 mph SSW1.9 kmh SSW 4.9 mph7.9 kmh 29.32 in992.9 mb 0.00 in0.0 mm 0.00 in0.0 mm 0.00 in0.0 mm
02:45 AM 81.5°F27.5°C 72.8°F22.7°C 75% 2.2 mph S3.5 kmh S 4.9 mph7.9 kmh 29.32 in992.9 mb 0.00 in0.0 mm 0.00 in0.0 mm 0.00 in0.0 mm
02:50 AM 81.3°F27.4°C 72.6°F22.6°C 75% 1.4 mph S2.3 kmh S 2.5 mph4.0 kmh 29.33 in993.2 mb 0.00 in0.0 mm 0.00 in0.0 mm 0.00 in0.0 mm
02:55 AM 81.3°F27.4°C 72.6°F22.6°C 75% 3.1 mph SSE5.0 kmh SSE 4.9 mph7.9 kmh 29.33 in993.2 mb 0.00 in0.0 mm 0.00 in0.0 mm 0.00 in0.0 mm
03:00 AM 81.1°F27.3°C 72.4°F22.4°C 75% 3.8 mph SE6.1 kmh SE 7.4 mph11.9 kmh 29.34 in993.6 mb 0.00 in0.0 mm 0.00 in0.0 mm 0.00 in0.0 mm
03:05 AM 81.1°F27.3°C 72.4°F22.4°C 75% 3.2 mph S5.1 kmh S 7.4 mph11.9 kmh 29.33 in993.2 mb 0.00 in0.0 mm 0.00 in0.0 mm 0.00 in0.0 mm
03:10 AM 81.1°F27.3°C 72.6°F22.6°C 76% 2.1 mph S3.4 kmh S 7.4 mph11.9 kmh 29.33 in993.2 mb 0.00 in0.0 mm 0.00 in0.0 mm 0.00 in0.0 mm
03:15 AM 81.1°F27.3°C 72.8°F22.7°C 76% 2.8 mph S4.5 kmh S 7.4 mph11.9 kmh 29.32 in992.9 mb 0.00 in0.0 mm 0.00 in0.0 mm 0.00 in0.0 mm
03:20 AM 81.1°F27.3°C 72.7°F22.6°C 76% 4.9 mph SE7.9 kmh SE 7.4 mph11.9 kmh 29.32 in992.9 mb 0.00 in0.0 mm 0.00 in0.0 mm 0.00 in0.0 mm
03:25 AM 81.1°F27.3°C 72.8°F22.7°C 76% 2.9 mph SSE4.7 kmh SSE 4.9 mph7.9 kmh 29.33 in993.2 mb 0.00 in0.0 mm 0.00 in0.0 mm 0.00 in0.0 mm
03:30 AM 81.1°F27.3°C 72.8°F22.7°C 76% 3.8 mph S6.1 kmh S 7.4 mph11.9 kmh 29.32 in992.9 mb 0.00 in0.0 mm 0.00 in0.0 mm 0.00 in0.0 mm
03:35 AM 81.0°F27.2°C 72.7°F22.6°C 76% 2.0 mph S3.2 kmh S 4.9 mph7.9 kmh 29.32 in992.9 mb 0.00 in0.0 mm 0.00 in0.0 mm 0.00 in0.0 mm
03:40 AM 81.0°F27.2°C 72.9°F22.7°C 76% 2.9 mph SSE4.7 kmh SSE 7.4 mph11.9 kmh 29.32 in992.9 mb 0.00 in0.0 mm 0.00 in0.0 mm 0.00 in0.0 mm
03:45 AM 81.0°F27.2°C 73.1°F22.8°C 77% 4.0 mph SSE6.4 kmh SSE 9.8 mph15.8 kmh 29.31 in992.6 mb 0.00 in0.0 mm 0.00 in0.0 mm 0.00 in0.0 mm
03:50 AM 80.6°F27.0°C 72.9°F22.7°C 78% 5.8 mph SE9.3 kmh SE 12.3 mph19.8 kmh 29.31 in992.6 mb 0.00 in0.0 mm 0.00 in0.0 mm 0.00 in0.0 mm
03:55 AM 80.4°F26.9°C 73.3°F22.9°C 79% 2.4 mph ESE3.9 kmh ESE 7.4 mph11.9 kmh 29.32 in992.9 mb 0.00 in0.0 mm 0.00 in0.0 mm 0.00 in0.0 mm
04:00 AM 80.4°F26.9°C 72.9°F22.7°C 78% 3.1 mph N5.0 kmh N 4.9 mph7.9 kmh 29.34 in993.6 mb 0.00 in0.0 mm 0.00 in0.0 mm 0.00 in0.0 mm
04:05 AM 80.3°F26.8°C 73.3°F22.9°C 79% 5.5 mph N8.9 kmh N 12.3 mph19.8 kmh 29.36 in994.2 mb 0.01 in0.3 mm 0.12 in3.0 mm 0.01 in0.3 mm
04:10 AM 76.6°F24.8°C 71.3°F21.8°C 84% 4.5 mph NNE7.2 kmh NNE 15.0 mph24.1 kmh 29.36 in994.2 mb 0.02 in0.5 mm 0.12 in3.0 mm 0.02 in0.5 mm
04:15 AM 73.4°F23.0°C 69.6°F20.9°C 88% 3.5 mph NW5.6 kmh NW 9.8 mph15.8 kmh 29.37 in994.6 mb 0.05 in1.3 mm 0.36 in9.1 mm 0.05 in1.3 mm
04:20 AM 73.1°F22.8°C 69.7°F20.9°C 89% 1.2 mph W1.9 kmh W 4.9 mph7.9 kmh 29.38 in994.9 mb 0.05 in1.3 mm 0.00 in0.0 mm 0.05 in1.3 mm
04:25 AM 72.9°F22.7°C 69.8°F21.0°C 90% 2.4 mph NW3.9 kmh NW 4.9 mph7.9 kmh 29.38 in994.9 mb 0.05 in1.3 mm 0.00 in0.0 mm 0.05 in1.3 mm
04:30 AM 72.3°F22.4°C 69.1°F20.6°C 90% 6.8 mph N10.9 kmh N 15.0 mph24.1 kmh 29.39 in995.3 mb 0.06 in1.5 mm 0.12 in3.0 mm 0.06 in1.5 mm
04:35 AM 71.9°F22.2°C 68.8°F20.4°C 90% 4.3 mph N6.9 kmh N 9.8 mph15.8 kmh 29.39 in995.3 mb 0.07 in1.8 mm 0.12 in3.0 mm 0.07 in1.8 mm
04:40 AM 71.8°F22.1°C 69.1°F20.6°C 91% 5.9 mph NNE9.5 kmh NNE 12.3 mph19.8 kmh 29.39 in995.3 mb 0.12 in3.0 mm 0.60 in15.2 mm 0.12 in3.0 mm
04:45 AM 71.6°F22.0°C 69.1°F20.6°C 92% 4.4 mph N7.1 kmh N 17.4 mph28.0 kmh 29.39 in995.3 mb 0.14 in3.6 mm 0.24 in6.1 mm 0.14 in3.6 mm
04:50 AM 71.3°F21.8°C 69.0°F20.6°C 92% 5.6 mph NE9.0 kmh NE 15.0 mph24.1 kmh 29.39 in995.3 mb 0.15 in3.8 mm 0.12 in3.0 mm 0.15 in3.8 mm
04:55 AM 70.9°F21.6°C 68.8°F20.4°C 93% 4.9 mph NNE7.9 kmh NNE 9.8 mph15.8 kmh 29.39 in995.3 mb 0.18 in4.6 mm 0.36 in9.1 mm 0.18 in4.6 mm
05:00 AM 70.9°F21.6°C 68.8°F20.4°C 93% 4.6 mph NNW7.4 kmh NNW 9.8 mph15.8 kmh 29.40 in995.6 mb 0.19 in4.8 mm 0.01 in0.3 mm 0.19 in4.8 mm
05:05 AM 70.9°F21.6°C 68.8°F20.4°C 93% 5.7 mph N9.2 kmh N 12.3 mph19.8 kmh 29.40 in995.6 mb 0.19 in4.8 mm 0.00 in0.0 mm 0.20 in5.1 mm
05:10 AM 70.9°F21.6°C 68.9°F20.5°C 93% 4.5 mph NNE7.2 kmh NNE 17.4 mph28.0 kmh 29.39 in995.3 mb 0.20 in5.1 mm 0.12 in3.0 mm 0.22 in5.6 mm
05:15 AM 71.1°F21.7°C 69.3°F20.7°C 94% 3.7 mph NNE6.0 kmh NNE 12.3 mph19.8 kmh 29.41 in995.9 mb 0.20 in5.1 mm 0.00 in0.0 mm 0.25 in6.4 mm
05:20 AM 71.1°F21.7°C 69.3°F20.7°C 94% 7.5 mph ENE12.1 kmh ENE 12.3 mph19.8 kmh 29.41 in995.9 mb 0.22 in5.6 mm 0.24 in6.1 mm 0.27 in6.9 mm
05:25 AM 71.1°F21.7°C 69.3°F20.7°C 94% 6.1 mph E9.8 kmh E 12.3 mph19.8 kmh 29.41 in995.9 mb 0.27 in6.9 mm 0.60 in15.2 mm 0.32 in8.1 mm
05:30 AM 71.0°F21.7°C 69.3°F20.7°C 94% 9.7 mph ENE15.6 kmh ENE 19.9 mph32.0 kmh 29.41 in995.9 mb 0.40 in10.2 mm 1.56 in39.6 mm 0.46 in11.7 mm
05:35 AM 70.9°F21.6°C 69.4°F20.8°C 95% 7.6 mph ESE12.2 kmh ESE 17.4 mph28.0 kmh 29.43 in996.6 mb 0.62 in15.7 mm 2.64 in67.1 mm 0.69 in17.5 mm
05:40 AM 70.9°F21.6°C 69.4°F20.8°C 95% 3.2 mph E5.1 kmh E 9.8 mph15.8 kmh 29.41 in995.9 mb 0.83 in21.1 mm 2.52 in64.0 mm 0.95 in24.1 mm
05:45 AM 70.8°F21.6°C 69.4°F20.8°C 95% 3.9 mph E6.3 kmh E 7.4 mph11.9 kmh 29.42 in996.3 mb 0.83 in21.1 mm 0.00 in0.0 mm 0.97 in24.6 mm
05:50 AM 70.6°F21.4°C 69.4°F20.8°C 96% 6.1 mph SE9.8 kmh SE 7.4 mph11.9 kmh 29.43 in996.6 mb 0.82 in20.8 mm 0.00 in0.0 mm 0.97 in24.6 mm
05:55 AM 70.3°F21.3°C 69.1°F20.6°C 96% 4.9 mph SSE7.9 kmh SSE 12.3 mph19.8 kmh 29.42 in996.3 mb 0.85 in21.6 mm 0.36 in9.1 mm 1.03 in26.2 mm
06:00 AM 70.3°F21.3°C 69.1°F20.6°C 96% 4.6 mph E7.4 kmh E 9.8 mph15.8 kmh 29.42 in996.3 mb 0.86 in21.8 mm 0.01 in0.3 mm 1.05 in26.7 mm
06:05 AM 70.3°F21.3°C 69.1°F20.6°C 96% 3.2 mph E5.1 kmh E 7.4 mph11.9 kmh 29.42 in996.3 mb 0.85 in21.6 mm 0.00 in0.0 mm 1.05 in26.7 mm
06:10 AM 70.3°F21.3°C 69.1°F20.6°C 96% 2.8 mph NE4.5 kmh NE 7.4 mph11.9 kmh 29.42 in996.3 mb 0.86 in21.8 mm 0.12 in3.0 mm 1.08 in27.4 mm
06:15 AM 70.2°F21.2°C 69.0°F20.6°C 96% 2.6 mph SE4.2 kmh SE 7.4 mph11.9 kmh 29.43 in996.6 mb 0.86 in21.8 mm 0.00 in0.0 mm 1.11 in28.2 mm
06:20 AM 70.2°F21.2°C 69.0°F20.6°C 96% 3.5 mph SSE5.6 kmh SSE 7.4 mph11.9 kmh 29.43 in996.6 mb 0.84 in21.3 mm 0.00 in0.0 mm 1.11 in28.2 mm
06:25 AM 70.2°F21.2°C 69.2°F20.7°C 97% 3.1 mph SE5.0 kmh SE 7.4 mph11.9 kmh 29.43 in996.6 mb 0.79 in20.1 mm 0.00 in0.0 mm 1.11 in28.2 mm
06:30 AM 70.2°F21.2°C 69.3°F20.7°C 97% 3.2 mph SE5.1 kmh SE 7.4 mph11.9 kmh 29.42 in996.3 mb 0.65 in16.5 mm 0.00 in0.0 mm 1.11 in28.2 mm
06:35 AM 70.3°F21.3°C 69.4°F20.8°C 97% 3.1 mph E5.0 kmh E 7.4 mph11.9 kmh 29.41 in995.9 mb 0.42 in10.7 mm 0.00 in0.0 mm 1.11 in28.2 mm
06:40 AM 70.3°F21.3°C 69.4°F20.8°C 97% 4.2 mph SE6.8 kmh SE 7.4 mph11.9 kmh 29.43 in996.6 mb 0.16 in4.1 mm 0.00 in0.0 mm 1.11 in28.2 mm
06:45 AM 70.3°F21.3°C 69.4°F20.8°C 97% 6.3 mph SSE10.1 kmh SSE 9.8 mph15.8 kmh 29.44 in997.0 mb 0.14 in3.6 mm 0.00 in0.0 mm 1.11 in28.2 mm
06:50 AM 70.3°F21.3°C 69.4°F20.8°C 97% 6.0 mph SE9.7 kmh SE 9.8 mph15.8 kmh 29.45 in997.3 mb 0.14 in3.6 mm 0.00 in0.0 mm 1.11 in28.2 mm
06:55 AM 70.5°F21.4°C 69.6°F20.9°C 97% 2.8 mph E4.5 kmh E 7.4 mph11.9 kmh 29.44 in997.0 mb 0.08 in2.0 mm 0.00 in0.0 mm 1.11 in28.2 mm
07:00 AM 70.5°F21.4°C 69.6°F20.9°C 97% 3.7 mph E6.0 kmh E 7.4 mph11.9 kmh 29.45 in997.3 mb 0.06 in1.5 mm 0.00 in0.0 mm 1.11 in28.2 mm
07:05 AM 70.5°F21.4°C 69.6°F20.9°C 97% 4.0 mph SE6.4 kmh SE 7.4 mph11.9 kmh 29.46 in997.6 mb 0.06 in1.5 mm 0.00 in0.0 mm 1.11 in28.2 mm
07:10 AM 70.5°F21.4°C 69.6°F20.9°C 97% 4.6 mph E7.4 kmh E 9.8 mph15.8 kmh 29.47 in998.0 mb 0.03 in0.8 mm 0.00 in0.0 mm 1.11 in28.2 mm
07:15 AM 70.5°F21.4°C 69.6°F20.9°C 97% 4.3 mph SE6.9 kmh SE 7.4 mph11.9 kmh 29.48 in998.3 mb 0.00 in0.0 mm 0.00 in0.0 mm 1.11 in28.2 mm
07:20 AM 70.5°F21.4°C 69.6°F20.9°C 97% 4.0 mph ESE6.4 kmh ESE 7.4 mph11.9 kmh 29.47 in998.0 mb 0.00 in0.0 mm 0.00 in0.0 mm 1.11 in28.2 mm
07:25 AM 70.4°F21.3°C 69.5°F20.8°C 97% 4.1 mph E6.6 kmh E 7.4 mph11.9 kmh 29.47 in998.0 mb 0.00 in0.0 mm 0.00 in0.0 mm 1.11 in28.2 mm
07:30 AM 70.3°F21.3°C 69.4°F20.8°C 97% 4.7 mph ESE7.6 kmh ESE 9.8 mph15.8 kmh 29.47 in998.0 mb 0.00 in0.0 mm 0.00 in0.0 mm 1.11 in28.2 mm
07:35 AM 70.3°F21.3°C 69.4°F20.8°C 97% 3.0 mph SE4.8 kmh SE 4.9 mph7.9 kmh 29.48 in998.3 mb 0.00 in0.0 mm 0.00 in0.0 mm 1.11 in28.2 mm
07:40 AM 70.3°F21.3°C 69.4°F20.8°C 97% 2.5 mph ESE4.0 kmh ESE 7.4 mph11.9 kmh 29.47 in998.0 mb 0.00 in0.0 mm 0.00 in0.0 mm 1.11 in28.2 mm
07:45 AM 70.3°F21.3°C 69.4°F20.8°C 97% 3.2 mph SE5.1 kmh SE 9.8 mph15.8 kmh 29.46 in997.6 mb 0.00 in0.0 mm 0.00 in0.0 mm 1.11 in28.2 mm
07:50 AM 70.3°F21.3°C 69.4°F20.8°C 97% 3.0 mph S4.8 kmh S 7.4 mph11.9 kmh 29.46 in997.6 mb 0.00 in0.0 mm 0.00 in0.0 mm 1.11 in28.2 mm
07:55 AM 70.3°F21.3°C 69.4°F20.8°C 97% 3.4 mph SE5.5 kmh SE 4.9 mph7.9 kmh 29.46 in997.6 mb 0.00 in0.0 mm 0.00 in0.0 mm 1.11 in28.2 mm
08:00 AM 70.3°F21.3°C 69.4°F20.8°C 97% 5.2 mph SE8.4 kmh SE 12.3 mph19.8 kmh 29.46 in997.6 mb 0.00 in0.0 mm 0.00 in0.0 mm 1.11 in28.2 mm
08:05 AM 70.3°F21.3°C 69.4°F20.8°C 97% 4.9 mph SE7.9 kmh SE 9.8 mph15.8 kmh 29.46 in997.6 mb 0.00 in0.0 mm 0.00 in0.0 mm 1.11 in28.2 mm
08:10 AM 70.3°F21.3°C 69.4°F20.8°C 97% 5.8 mph SE9.3 kmh SE 12.3 mph19.8 kmh 29.46 in997.6 mb 0.00 in0.0 mm 0.00 in0.0 mm 1.11 in28.2 mm
08:15 AM 70.3°F21.3°C 69.4°F20.8°C 97% 4.3 mph SE6.9 kmh SE 7.4 mph11.9 kmh 29.46 in997.6 mb 0.00 in0.0 mm 0.00 in0.0 mm 1.11 in28.2 mm
08:20 AM 70.3°F21.3°C 69.4°F20.8°C 97% 4.8 mph SE7.7 kmh SE 9.8 mph15.8 kmh 29.46 in997.6 mb 0.00 in0.0 mm 0.00 in0.0 mm 1.11 in28.2 mm
08:25 AM 70.3°F21.3°C 69.4°F20.8°C 97% 5.3 mph SE8.5 kmh SE 7.4 mph11.9 kmh 29.47 in998.0 mb 0.00 in0.0 mm 0.00 in0.0 mm 1.11 in28.2 mm
08:30 AM 70.3°F21.3°C 69.4°F20.8°C 97% 3.8 mph SE6.1 kmh SE 7.4 mph11.9 kmh 29.47 in998.0 mb 0.00 in0.0 mm 0.00 in0.0 mm 1.11 in28.2 mm
08:35 AM 70.3°F21.3°C 69.4°F20.8°C 97% 2.7 mph S4.3 kmh S 7.4 mph11.9 kmh 29.47 in998.0 mb 0.00 in0.0 mm 0.00 in0.0 mm 1.11 in28.2 mm
08:40 AM 70.3°F21.3°C 69.4°F20.8°C 97% 1.6 mph E2.6 kmh E 4.9 mph7.9 kmh 29.47 in998.0 mb 0.00 in0.0 mm 0.00 in0.0 mm 1.11 in28.2 mm
08:45 AM 70.3°F21.3°C 69.4°F20.8°C 97% 0.4 mph ESE0.6 kmh ESE 2.5 mph4.0 kmh 29.48 in998.3 mb 0.00 in0.0 mm 0.00 in0.0 mm 1.11 in28.2 mm
08:50 AM 70.4°F21.3°C 69.5°F20.8°C 97% 0.3 mph E0.5 kmh E 2.5 mph4.0 kmh 29.48 in998.3 mb 0.00 in0.0 mm 0.00 in0.0 mm 1.11 in28.2 mm
08:55 AM 70.7°F21.5°C 69.8°F21.0°C 97% Calm Calm -- 29.49 in998.6 mb 0.00 in0.0 mm 0.00 in0.0 mm 1.11 in28.2 mm
09:00 AM 70.9°F21.6°C 70.0°F21.1°C 97% Calm Calm 2.5 mph4.0 kmh 29.49 in998.6 mb 0.00 in0.0 mm 0.00 in0.0 mm 1.11 in28.2 mm
09:05 AM 70.9°F21.6°C 70.0°F21.1°C 97% 2.3 mph NW3.7 kmh NW 7.4 mph11.9 kmh 29.50 in999.0 mb 0.00 in0.0 mm 0.00 in0.0 mm 1.11 in28.2 mm
09:10 AM 70.9°F21.6°C 70.0°F21.1°C 97% 2.8 mph WNW4.5 kmh WNW 7.4 mph11.9 kmh 29.51 in999.3 mb 0.00 in0.0 mm 0.00 in0.0 mm 1.11 in28.2 mm
09:15 AM 71.1°F21.7°C 70.2°F21.2°C 97% 4.5 mph NNW7.2 kmh NNW 9.8 mph15.8 kmh 29.52 in999.7 mb 0.00 in0.0 mm 0.00 in0.0 mm 1.11 in28.2 mm
09:20 AM 71.2°F21.8°C 70.3°F21.3°C 97% 2.7 mph N4.3 kmh N 7.4 mph11.9 kmh 29.52 in999.7 mb 0.00 in0.0 mm 0.00 in0.0 mm 1.11 in28.2 mm
09:25 AM 71.2°F21.8°C 70.3°F21.3°C 97% 3.2 mph NW5.1 kmh NW 7.4 mph11.9 kmh 29.52 in999.7 mb 0.00 in0.0 mm 0.00 in0.0 mm 1.11 in28.2 mm
09:30 AM 71.2°F21.8°C 70.3°F21.3°C 97% 2.4 mph NW3.9 kmh NW 4.9 mph7.9 kmh 29.52 in999.7 mb 0.00 in0.0 mm 0.00 in0.0 mm 1.11 in28.2 mm
09:35 AM 71.4°F21.9°C 70.2°F21.2°C 96% 3.5 mph NW5.6 kmh NW 9.8 mph15.8 kmh 29.52 in999.7 mb 0.00 in0.0 mm 0.00 in0.0 mm 1.11 in28.2 mm
09:40 AM 71.4°F21.9°C 70.3°F21.3°C 96% 4.1 mph NW6.6 kmh NW 7.4 mph11.9 kmh 29.52 in999.7 mb 0.00 in0.0 mm 0.00 in0.0 mm 1.11 in28.2 mm
09:45 AM 71.4°F21.9°C 70.5°F21.4°C 97% 3.1 mph NW5.0 kmh NW 9.8 mph15.8 kmh 29.53 in1000.0 mb 0.00 in0.0 mm 0.00 in0.0 mm 1.11 in28.2 mm
09:50 AM 71.4°F21.9°C 70.5°F21.4°C 97% 5.7 mph NW9.2 kmh NW 12.3 mph19.8 kmh 29.54 in1000.3 mb 0.00 in0.0 mm 0.00 in0.0 mm 1.11 in28.2 mm
09:55 AM 71.3°F21.8°C 70.4°F21.3°C 97% 6.3 mph NNW10.1 kmh NNW 12.3 mph19.8 kmh 29.54 in1000.3 mb 0.00 in0.0 mm 0.00 in0.0 mm 1.11 in28.2 mm
10:00 AM 71.2°F21.8°C 70.3°F21.3°C 97% 4.5 mph NNW7.2 kmh NNW 9.8 mph15.8 kmh 29.54 in1000.3 mb 0.00 in0.0 mm 0.00 in0.0 mm 1.11 in28.2 mm
10:05 AM 71.2°F21.8°C 70.3°F21.3°C 97% 4.7 mph NW7.6 kmh NW 15.0 mph24.1 kmh 29.54 in1000.3 mb 0.00 in0.0 mm 0.00 in0.0 mm 1.11 in28.2 mm
10:10 AM 71.2°F21.8°C 70.2°F21.2°C 97% 4.5 mph NW7.2 kmh NW 9.8 mph15.8 kmh 29.54 in1000.3 mb 0.00 in0.0 mm 0.00 in0.0 mm 1.11 in28.2 mm
10:15 AM 71.4°F21.9°C 70.2°F21.2°C 96% 2.3 mph W3.7 kmh W 7.4 mph11.9 kmh 29.54 in1000.3 mb 0.00 in0.0 mm 0.00 in0.0 mm 1.11 in28.2 mm
10:20 AM 71.8°F22.1°C 70.6°F21.4°C 96% 5.1 mph NW8.2 kmh NW 15.0 mph24.1 kmh 29.53 in1000.0 mb 0.00 in0.0 mm 0.00 in0.0 mm 1.11 in28.2 mm
10:25 AM 71.8°F22.1°C 70.6°F21.4°C 96% 2.9 mph NW4.7 kmh NW 4.9 mph7.9 kmh 29.53 in1000.0 mb 0.00 in0.0 mm 0.00 in0.0 mm 1.11 in28.2 mm
10:30 AM 71.8°F22.1°C 70.6°F21.4°C 96% 4.3 mph NW6.9 kmh NW 7.4 mph11.9 kmh 29.53 in1000.0 mb 0.00 in0.0 mm 0.00 in0.0 mm 1.11 in28.2 mm
10:35 AM 71.9°F22.2°C 70.7°F21.5°C 96% 4.8 mph NW7.7 kmh NW 12.3 mph19.8 kmh 29.53 in1000.0 mb 0.00 in0.0 mm 0.00 in0.0 mm 1.11 in28.2 mm
10:40 AM 72.0°F22.2°C 70.8°F21.6°C 96% 4.1 mph NNW6.6 kmh NNW 9.8 mph15.8 kmh 29.54 in1000.3 mb 0.00 in0.0 mm 0.00 in0.0 mm 1.11 in28.2 mm
10:45 AM 72.0°F22.2°C 70.8°F21.6°C 96% 3.8 mph NW6.1 kmh NW 7.4 mph11.9 kmh 29.54 in1000.3 mb 0.00 in0.0 mm 0.00 in0.0 mm 1.11 in28.2 mm
10:50 AM 72.0°F22.2°C 70.8°F21.6°C 96% 3.7 mph N6.0 kmh N 7.4 mph11.9 kmh 29.54 in1000.3 mb 0.00 in0.0 mm 0.00 in0.0 mm 1.11 in28.2 mm
10:55 AM 72.0°F22.2°C 70.8°F21.6°C 96% 2.3 mph NW3.7 kmh NW 7.4 mph11.9 kmh 29.54 in1000.3 mb 0.00 in0.0 mm 0.00 in0.0 mm 1.11 in28.2 mm
11:00 AM 72.1°F22.3°C 70.9°F21.6°C 96% 3.0 mph N4.8 kmh N 9.8 mph15.8 kmh 29.55 in1000.7 mb 0.00 in0.0 mm 0.00 in0.0 mm 1.11 in28.2 mm
11:05 AM 72.1°F22.3°C 70.9°F21.6°C 96% 2.1 mph NNW3.4 kmh NNW 4.9 mph7.9 kmh 29.55 in1000.7 mb 0.00 in0.0 mm 0.00 in0.0 mm 1.11 in28.2 mm
11:10 AM 72.1°F22.3°C 70.9°F21.6°C 96% 0.9 mph NW1.4 kmh NW 7.4 mph11.9 kmh 29.55 in1000.7 mb 0.00 in0.0 mm 0.00 in0.0 mm 1.11 in28.2 mm
11:15 AM 72.4°F22.4°C 71.2°F21.8°C 96% 3.2 mph NW5.1 kmh NW 12.3 mph19.8 kmh 29.55 in1000.7 mb 0.00 in0.0 mm 0.00 in0.0 mm 1.11 in28.2 mm
11:20 AM 72.7°F22.6°C 71.5°F21.9°C 96% 4.6 mph NNW7.4 kmh NNW 7.4 mph11.9 kmh 29.55 in1000.7 mb 0.00 in0.0 mm 0.00 in0.0 mm 1.11 in28.2 mm
11:25 AM 72.7°F22.6°C 71.5°F21.9°C 96% 2.9 mph N4.7 kmh N 7.4 mph11.9 kmh 29.55 in1000.7 mb 0.00 in0.0 mm 0.00 in0.0 mm 1.11 in28.2 mm
11:30 AM 72.9°F22.7°C 71.7°F22.1°C 96% 2.8 mph WNW4.5 kmh WNW 9.8 mph15.8 kmh 29.54 in1000.3 mb 0.00 in0.0 mm 0.00 in0.0 mm 1.11 in28.2 mm
11:35 AM 72.9°F22.7°C 71.7°F22.1°C 96% 6.1 mph NNW9.8 kmh NNW 9.8 mph15.8 kmh 29.54 in1000.3 mb 0.00 in0.0 mm 0.00 in0.0 mm 1.11 in28.2 mm
11:40 AM 73.0°F22.8°C 72.1°F22.3°C 97% 2.5 mph W4.0 kmh W 4.9 mph7.9 kmh 29.54 in1000.3 mb 0.00 in0.0 mm 0.00 in0.0 mm 1.11 in28.2 mm
11:45 AM 73.0°F22.8°C 71.8°F22.1°C 96% 4.3 mph NNW6.9 kmh NNW 9.8 mph15.8 kmh 29.54 in1000.3 mb 0.00 in0.0 mm 0.00 in0.0 mm 1.11 in28.2 mm
11:50 AM 73.0°F22.8°C 71.7°F22.1°C 96% 5.0 mph NNW8.0 kmh NNW 9.8 mph15.8 kmh 29.54 in1000.3 mb 0.00 in0.0 mm 0.00 in0.0 mm 1.11 in28.2 mm
11:55 AM 73.1°F22.8°C 72.1°F22.3°C 97% 3.1 mph NW5.0 kmh NW 4.9 mph7.9 kmh 29.54 in1000.3 mb 0.00 in0.0 mm 0.00 in0.0 mm 1.11 in28.2 mm
12:00 PM 73.2°F22.9°C 72.0°F22.2°C 96% 3.4 mph NW5.5 kmh NW 7.4 mph11.9 kmh 29.54 in1000.3 mb 0.00 in0.0 mm 0.00 in0.0 mm 1.11 in28.2 mm
12:05 PM 73.2°F22.9°C 72.3°F22.4°C 97% 2.4 mph NW3.9 kmh NW 9.8 mph15.8 kmh 29.54 in1000.3 mb 0.00 in0.0 mm 0.00 in0.0 mm 1.11 in28.2 mm
12:10 PM 73.2°F22.9°C 72.3°F22.4°C 97% 3.1 mph NW5.0 kmh NW 7.4 mph11.9 kmh 29.54 in1000.3 mb 0.00 in0.0 mm 0.00 in0.0 mm 1.11 in28.2 mm
12:15 PM 73.2°F22.9°C 72.0°F22.2°C 96% 3.1 mph WNW5.0 kmh WNW 7.4 mph11.9 kmh 29.54 in1000.3 mb 0.00 in0.0 mm 0.00 in0.0 mm 1.11 in28.2 mm
12:20 PM 73.2°F22.9°C 72.3°F22.4°C 97% 1.7 mph NW2.7 kmh NW 4.9 mph7.9 kmh 29.55 in1000.7 mb 0.00 in0.0 mm 0.00 in0.0 mm 1.11 in28.2 mm
12:25 PM 73.2°F22.9°C 72.3°F22.4°C 97% 0.8 mph NW1.3 kmh NW 4.9 mph7.9 kmh 29.54 in1000.3 mb 0.00 in0.0 mm 0.00 in0.0 mm 1.11 in28.2 mm
12:30 PM 73.2°F22.9°C 72.3°F22.4°C 97% 1.6 mph WNW2.6 kmh WNW 4.9 mph7.9 kmh 29.54 in1000.3 mb 0.00 in0.0 mm 0.00 in0.0 mm 1.11 in28.2 mm
12:35 PM 73.3°F22.9°C 72.4°F22.4°C 97% 2.2 mph NW3.5 kmh NW 7.4 mph11.9 kmh 29.54 in1000.3 mb 0.00 in0.0 mm 0.00 in0.0 mm 1.11 in28.2 mm
12:40 PM 73.5°F23.1°C 72.6°F22.6°C 97% 0.5 mph W0.8 kmh W 2.5 mph4.0 kmh 29.54 in1000.3 mb 0.00 in0.0 mm 0.00 in0.0 mm 1.11 in28.2 mm
12:45 PM 73.6°F23.1°C 72.7°F22.6°C 97% 0.1 mph NW0.2 kmh NW 2.5 mph4.0 kmh 29.52 in999.7 mb 0.00 in0.0 mm 0.00 in0.0 mm 1.11 in28.2 mm
12:50 PM 73.6°F23.1°C 72.7°F22.6°C 97% 0.4 mph W0.6 kmh W 2.5 mph4.0 kmh 29.53 in1000.0 mb 0.00 in0.0 mm 0.00 in0.0 mm 1.11 in28.2 mm
12:55 PM 73.6°F23.1°C 72.7°F22.6°C 97% 0.5 mph W0.8 kmh W 2.5 mph4.0 kmh 29.52 in999.7 mb 0.00 in0.0 mm 0.00 in0.0 mm 1.11 in28.2 mm
01:00 PM 73.4°F23.0°C 72.4°F22.4°C 97% 0.4 mph W0.6 kmh W 2.5 mph4.0 kmh 29.52 in999.7 mb 0.00 in0.0 mm 0.00 in0.0 mm 1.11 in28.2 mm
01:05 PM 73.4°F23.0°C 72.2°F22.3°C 96% Calm Calm -- 29.52 in999.7 mb 0.00 in0.0 mm 0.00 in0.0 mm 1.11 in28.2 mm
01:10 PM 73.5°F23.1°C 72.3°F22.4°C 96% Calm Calm -- 29.52 in999.7 mb 0.00 in0.0 mm 0.00 in0.0 mm 1.11 in28.2 mm
01:15 PM 73.8°F23.2°C 72.5°F22.5°C 96% 0.3 mph SSW0.5 kmh SSW 4.9 mph7.9 kmh 29.51 in999.3 mb 0.00 in0.0 mm 0.00 in0.0 mm 1.11 in28.2 mm
01:20 PM 74.1°F23.4°C 72.9°F22.7°C 96% Calm Calm -- 29.50 in999.0 mb 0.00 in0.0 mm 0.00 in0.0 mm 1.11 in28.2 mm
01:25 PM 74.1°F23.4°C 72.9°F22.7°C 96% Calm Calm -- 29.50 in999.0 mb 0.00 in0.0 mm 0.00 in0.0 mm 1.11 in28.2 mm
01:30 PM 74.2°F23.4°C 72.8°F22.7°C 96% Calm Calm 2.5 mph4.0 kmh 29.49 in998.6 mb 0.00 in0.0 mm 0.00 in0.0 mm 1.11 in28.2 mm
01:35 PM 74.3°F23.5°C 72.8°F22.7°C 95% 0.6 mph S1.0 kmh S 4.9 mph7.9 kmh 29.49 in998.6 mb 0.00 in0.0 mm 0.00 in0.0 mm 1.11 in28.2 mm
01:40 PM 74.0°F23.3°C 72.5°F22.5°C 95% 0.2 mph S0.3 kmh S 2.5 mph4.0 kmh 29.48 in998.3 mb 0.00 in0.0 mm 0.00 in0.0 mm 1.11 in28.2 mm
01:45 PM 74.1°F23.4°C 72.4°F22.4°C 94% 1.9 mph S3.1 kmh S 4.9 mph7.9 kmh 29.48 in998.3 mb 0.00 in0.0 mm 0.00 in0.0 mm 1.11 in28.2 mm
01:50 PM 73.9°F23.3°C 71.8°F22.1°C 93% 2.7 mph SSE4.3 kmh SSE 4.9 mph7.9 kmh 29.47 in998.0 mb 0.00 in0.0 mm 0.00 in0.0 mm 1.11 in28.2 mm
01:55 PM 73.9°F23.3°C 71.7°F22.1°C 93% 3.2 mph SSE5.1 kmh SSE 7.4 mph11.9 kmh 29.46 in997.6 mb 0.00 in0.0 mm 0.00 in0.0 mm 1.11 in28.2 mm
02:00 PM 74.1°F23.4°C 71.6°F22.0°C 92% 4.1 mph SSE6.6 kmh SSE 9.8 mph15.8 kmh 29.46 in997.6 mb 0.00 in0.0 mm 0.00 in0.0 mm 1.11 in28.2 mm
02:05 PM 74.2°F23.4°C 71.2°F21.8°C 90% 2.4 mph E3.9 kmh E 7.4 mph11.9 kmh 29.45 in997.3 mb 0.00 in0.0 mm 0.00 in0.0 mm 1.11 in28.2 mm
02:10 PM 74.5°F23.6°C 70.8°F21.6°C 88% 3.1 mph SE5.0 kmh SE 4.9 mph7.9 kmh 29.45 in997.3 mb 0.00 in0.0 mm 0.00 in0.0 mm 1.11 in28.2 mm
02:15 PM 74.8°F23.8°C 70.1°F21.2°C 85% 3.9 mph ESE6.3 kmh ESE 9.8 mph15.8 kmh 29.45 in997.3 mb 0.00 in0.0 mm 0.00 in0.0 mm 1.11 in28.2 mm
02:20 PM 76.3°F24.6°C 70.5°F21.4°C 82% 1.8 mph ESE2.9 kmh ESE 4.9 mph7.9 kmh 29.44 in997.0 mb 0.00 in0.0 mm 0.00 in0.0 mm 1.11 in28.2 mm
02:25 PM 76.4°F24.7°C 70.0°F21.1°C 81% 1.0 mph E1.6 kmh E 4.9 mph7.9 kmh 29.44 in997.0 mb 0.00 in0.0 mm 0.00 in0.0 mm 1.11 in28.2 mm
02:30 PM 76.5°F24.7°C 69.7°F20.9°C 80% 3.9 mph E6.3 kmh E 9.8 mph15.8 kmh 29.44 in997.0 mb 0.00 in0.0 mm 0.00 in0.0 mm 1.11 in28.2 mm
02:35 PM 76.6°F24.8°C 69.7°F20.9°C 79% 4.6 mph SE7.4 kmh SE 9.8 mph15.8 kmh 29.44 in997.0 mb 0.00 in0.0 mm 0.00 in0.0 mm 1.11 in28.2 mm
02:40 PM 77.2°F25.1°C 70.1°F21.2°C 79% 4.3 mph SSE6.9 kmh SSE 7.4 mph11.9 kmh 29.44 in997.0 mb 0.00 in0.0 mm 0.00 in0.0 mm 1.11 in28.2 mm
02:45 PM 77.2°F25.1°C 69.8°F21.0°C 78% 3.1 mph ESE5.0 kmh ESE 9.8 mph15.8 kmh 29.44 in997.0 mb 0.00 in0.0 mm 0.00 in0.0 mm 1.11 in28.2 mm
02:50 PM 77.2°F25.1°C 69.7°F20.9°C 78% 4.6 mph SSE7.4 kmh SSE 7.4 mph11.9 kmh 29.45 in997.3 mb 0.00 in0.0 mm 0.00 in0.0 mm 1.11 in28.2 mm
02:55 PM 77.2°F25.1°C 69.5°F20.8°C 77% 2.7 mph SE4.3 kmh SE 4.9 mph7.9 kmh 29.45 in997.3 mb 0.00 in0.0 mm 0.00 in0.0 mm 1.11 in28.2 mm
03:00 PM 77.9°F25.5°C 70.0°F21.1°C 77% 2.2 mph ESE3.5 kmh ESE 4.9 mph7.9 kmh 29.46 in997.6 mb 0.00 in0.0 mm 0.00 in0.0 mm 1.11 in28.2 mm
03:05 PM 77.9°F25.5°C 69.1°F20.6°C 74% 2.7 mph E4.3 kmh E 9.8 mph15.8 kmh 29.46 in997.6 mb 0.00 in0.0 mm 0.00 in0.0 mm 1.11 in28.2 mm
03:10 PM 78.1°F25.6°C 68.7°F20.4°C 73% 2.1 mph SE3.4 kmh SE 4.9 mph7.9 kmh 29.46 in997.6 mb 0.00 in0.0 mm 0.00 in0.0 mm 1.11 in28.2 mm
03:15 PM 78.3°F25.7°C 68.5°F20.3°C 72% 1.0 mph SE1.6 kmh SE 2.5 mph4.0 kmh 29.46 in997.6 mb 0.00 in0.0 mm 0.00 in0.0 mm 1.11 in28.2 mm
03:20 PM 79.7°F26.5°C 69.9°F21.1°C 72% 1.9 mph E3.1 kmh E 4.9 mph7.9 kmh 29.47 in998.0 mb 0.00 in0.0 mm 0.00 in0.0 mm 1.11 in28.2 mm
03:25 PM 79.7°F26.5°C 70.1°F21.2°C 72% 1.1 mph S1.8 kmh S 4.9 mph7.9 kmh 29.47 in998.0 mb 0.00 in0.0 mm 0.00 in0.0 mm 1.11 in28.2 mm
03:30 PM 79.7°F26.5°C 70.0°F21.1°C 72% 2.7 mph ESE4.3 kmh ESE 7.4 mph11.9 kmh 29.47 in998.0 mb 0.00 in0.0 mm 0.00 in0.0 mm 1.11 in28.2 mm
03:35 PM 79.6°F26.4°C 70.3°F21.3°C 73% 1.7 mph E2.7 kmh E 4.9 mph7.9 kmh 29.47 in998.0 mb 0.00 in0.0 mm 0.00 in0.0 mm 1.11 in28.2 mm
03:40 PM 79.3°F26.3°C 70.1°F21.2°C 74% 1.1 mph E1.8 kmh E 4.9 mph7.9 kmh 29.47 in998.0 mb 0.00 in0.0 mm 0.00 in0.0 mm 1.11 in28.2 mm
03:45 PM 79.2°F26.2°C 69.5°F20.8°C 72% 1.3 mph ENE2.1 kmh ENE 4.9 mph7.9 kmh 29.47 in998.0 mb 0.00 in0.0 mm 0.00 in0.0 mm 1.11 in28.2 mm
03:50 PM 79.3°F26.3°C 69.0°F20.6°C 71% 1.5 mph NE2.4 kmh NE 4.9 mph7.9 kmh 29.47 in998.0 mb 0.00 in0.0 mm 0.00 in0.0 mm 1.11 in28.2 mm
03:55 PM 79.5°F26.4°C 68.8°F20.4°C 70% 0.9 mph NNE1.4 kmh NNE 2.5 mph4.0 kmh 29.47 in998.0 mb 0.00 in0.0 mm 0.00 in0.0 mm 1.11 in28.2 mm
04:00 PM 80.6°F27.0°C 69.8°F21.0°C 70% 0.1 mph SSW0.2 kmh SSW 2.5 mph4.0 kmh 29.47 in998.0 mb 0.00 in0.0 mm 0.00 in0.0 mm 1.11 in28.2 mm
04:05 PM 80.8°F27.1°C 69.5°F20.8°C 69% 0.9 mph NNW1.4 kmh NNW 4.9 mph7.9 kmh 29.47 in998.0 mb 0.00 in0.0 mm 0.00 in0.0 mm 1.11 in28.2 mm
04:10 PM 80.7°F27.1°C 70.2°F21.2°C 71% 0.6 mph N1.0 kmh N 4.9 mph7.9 kmh 29.46 in997.6 mb 0.00 in0.0 mm 0.00 in0.0 mm 1.11 in28.2 mm
04:15 PM 80.5°F26.9°C 70.7°F21.5°C 72% 0.5 mph N0.8 kmh N 2.5 mph4.0 kmh 29.47 in998.0 mb 0.00 in0.0 mm 0.00 in0.0 mm 1.11 in28.2 mm
04:20 PM 80.8°F27.1°C 70.6°F21.4°C 71% 1.3 mph NE2.1 kmh NE 2.5 mph4.0 kmh 29.47 in998.0 mb 0.00 in0.0 mm 0.00 in0.0 mm 1.11 in28.2 mm
04:25 PM 81.1°F27.3°C 70.1°F21.2°C 69% 1.7 mph N2.7 kmh N 4.9 mph7.9 kmh 29.46 in997.6 mb 0.00 in0.0 mm 0.00 in0.0 mm 1.11 in28.2 mm
04:30 PM 81.3°F27.4°C 69.2°F20.7°C 67% 1.6 mph NW2.6 kmh NW 4.9 mph7.9 kmh 29.46 in997.6 mb 0.00 in0.0 mm 0.00 in0.0 mm 1.11 in28.2 mm
04:35 PM 81.5°F27.5°C 69.5°F20.8°C 67% 3.1 mph NNW5.0 kmh NNW 4.9 mph7.9 kmh 29.46 in997.6 mb 0.00 in0.0 mm 0.00 in0.0 mm 1.11 in28.2 mm
04:40 PM 82.0°F27.8°C 69.4°F20.8°C 66% 1.9 mph NNW3.1 kmh NNW 4.9 mph7.9 kmh 29.46 in997.6 mb 0.00 in0.0 mm 0.00 in0.0 mm 1.11 in28.2 mm
04:45 PM 82.2°F27.9°C 69.8°F21.0°C 66% 3.9 mph N6.3 kmh N 9.8 mph15.8 kmh 29.46 in997.6 mb 0.00 in0.0 mm 0.00 in0.0 mm 1.11 in28.2 mm
04:50 PM 82.1°F27.8°C 70.4°F21.3°C 68% 6.9 mph N11.1 kmh N 12.3 mph19.8 kmh 29.46 in997.6 mb 0.00 in0.0 mm 0.00 in0.0 mm 1.11 in28.2 mm
04:55 PM 81.9°F27.7°C 70.8°F21.6°C 69% 4.9 mph N7.9 kmh N 9.8 mph15.8 kmh 29.46 in997.6 mb 0.00 in0.0 mm 0.00 in0.0 mm 1.11 in28.2 mm
05:00 PM 81.8°F27.7°C 70.6°F21.4°C 69% 3.4 mph NNW5.5 kmh NNW 4.9 mph7.9 kmh 29.46 in997.6 mb 0.00 in0.0 mm 0.00 in0.0 mm 1.11 in28.2 mm
05:05 PM 81.7°F27.6°C 70.5°F21.4°C 69% 2.5 mph N4.0 kmh N 7.4 mph11.9 kmh 29.46 in997.6 mb 0.00 in0.0 mm 0.00 in0.0 mm 1.11 in28.2 mm
05:10 PM 81.4°F27.4°C 70.9°F21.6°C 70% 3.4 mph N5.5 kmh N 7.4 mph11.9 kmh 29.46 in997.6 mb 0.00 in0.0 mm 0.00 in0.0 mm 1.11 in28.2 mm
05:15 PM 81.0°F27.2°C 70.9°F21.6°C 72% 4.9 mph N7.9 kmh N 12.3 mph19.8 kmh 29.46 in997.6 mb 0.00 in0.0 mm 0.00 in0.0 mm 1.11 in28.2 mm
05:20 PM 80.1°F26.7°C 70.4°F21.3°C 72% 4.9 mph NE7.9 kmh NE 7.4 mph11.9 kmh 29.46 in997.6 mb 0.00 in0.0 mm 0.00 in0.0 mm 1.11 in28.2 mm
05:25 PM 79.2°F26.2°C 70.0°F21.1°C 74% 3.6 mph NNE5.8 kmh NNE 7.4 mph11.9 kmh 29.46 in997.6 mb 0.00 in0.0 mm 0.00 in0.0 mm 1.11 in28.2 mm
05:30 PM 79.2°F26.2°C 70.0°F21.1°C 74% 2.8 mph NNW4.5 kmh NNW 4.9 mph7.9 kmh 29.46 in997.6 mb 0.00 in0.0 mm 0.00 in0.0 mm 1.11 in28.2 mm
05:35 PM 79.2°F26.2°C 69.7°F20.9°C 73% 2.4 mph NNW3.9 kmh NNW 7.4 mph11.9 kmh 29.46 in997.6 mb 0.00 in0.0 mm 0.00 in0.0 mm 1.11 in28.2 mm
05:40 PM 79.0°F26.1°C 70.0°F21.1°C 74% 2.6 mph NNW4.2 kmh NNW 7.4 mph11.9 kmh 29.46 in997.6 mb 0.00 in0.0 mm 0.00 in0.0 mm 1.11 in28.2 mm
05:45 PM 79.0°F26.1°C 69.9°F21.1°C 74% 4.5 mph N7.2 kmh N 7.4 mph11.9 kmh 29.46 in997.6 mb 0.00 in0.0 mm 0.00 in0.0 mm 1.11 in28.2 mm
05:50 PM 78.9°F26.1°C 69.9°F21.1°C 74% 2.2 mph N3.5 kmh N 4.9 mph7.9 kmh 29.46 in997.6 mb 0.00 in0.0 mm 0.00 in0.0 mm 1.11 in28.2 mm
05:55 PM 78.8°F26.0°C 69.7°F20.9°C 74% 2.5 mph N4.0 kmh N 9.8 mph15.8 kmh 29.46 in997.6 mb 0.00 in0.0 mm 0.00 in0.0 mm 1.11 in28.2 mm
06:00 PM 78.8°F26.0°C 69.8°F21.0°C 74% 2.6 mph NE4.2 kmh NE 4.9 mph7.9 kmh 29.46 in997.6 mb 0.00 in0.0 mm 0.00 in0.0 mm 1.11 in28.2 mm
06:05 PM 79.0°F26.1°C 69.7°F20.9°C 73% 3.7 mph NW6.0 kmh NW 7.4 mph11.9 kmh 29.45 in997.3 mb 0.00 in0.0 mm 0.00 in0.0 mm 1.11 in28.2 mm
06:10 PM 78.8°F26.0°C 69.6°F20.9°C 74% 3.2 mph NE5.1 kmh NE 9.8 mph15.8 kmh 29.45 in997.3 mb 0.00 in0.0 mm 0.00 in0.0 mm 1.11 in28.2 mm
06:15 PM 78.7°F25.9°C 69.9°F21.1°C 74% 3.7 mph N6.0 kmh N 7.4 mph11.9 kmh 29.45 in997.3 mb 0.00 in0.0 mm 0.00 in0.0 mm 1.11 in28.2 mm
06:20 PM 78.1°F25.6°C 69.8°F21.0°C 76% 3.6 mph N5.8 kmh N 12.3 mph19.8 kmh 29.45 in997.3 mb 0.00 in0.0 mm 0.00 in0.0 mm 1.11 in28.2 mm
06:25 PM 77.4°F25.2°C 69.5°F20.8°C 77% 3.6 mph NNE5.8 kmh NNE 9.8 mph15.8 kmh 29.45 in997.3 mb 0.00 in0.0 mm 0.00 in0.0 mm 1.11 in28.2 mm
06:30 PM 77.3°F25.2°C 69.8°F21.0°C 78% 2.6 mph N4.2 kmh N 4.9 mph7.9 kmh 29.45 in997.3 mb 0.00 in0.0 mm 0.00 in0.0 mm 1.11 in28.2 mm
06:35 PM 77.2°F25.1°C 69.8°F21.0°C 78% 2.3 mph NNE3.7 kmh NNE 7.4 mph11.9 kmh 29.46 in997.6 mb 0.00 in0.0 mm 0.00 in0.0 mm 1.11 in28.2 mm
06:40 PM 77.2°F25.1°C 69.8°F21.0°C 78% 2.1 mph NE3.4 kmh NE 4.9 mph7.9 kmh 29.45 in997.3 mb 0.00 in0.0 mm 0.00 in0.0 mm 1.11 in28.2 mm
06:45 PM 77.2°F25.1°C 69.7°F20.9°C 78% 2.4 mph NE3.9 kmh NE 4.9 mph7.9 kmh 29.45 in997.3 mb 0.00 in0.0 mm 0.00 in0.0 mm 1.11 in28.2 mm
06:50 PM 77.2°F25.1°C 69.4°F20.8°C 77% 1.8 mph NNE2.9 kmh NNE 4.9 mph7.9 kmh 29.45 in997.3 mb 0.00 in0.0 mm 0.00 in0.0 mm 1.11 in28.2 mm
06:55 PM 77.2°F25.1°C 69.6°F20.9°C 78% 2.5 mph NE4.0 kmh NE 4.9 mph7.9 kmh 29.46 in997.6 mb 0.00 in0.0 mm 0.00 in0.0 mm 1.11 in28.2 mm
07:00 PM 77.2°F25.1°C 69.6°F20.9°C 78% 1.7 mph NNE2.7 kmh NNE 4.9 mph7.9 kmh 29.46 in997.6 mb 0.00 in0.0 mm 0.00 in0.0 mm 1.11 in28.2 mm
07:05 PM 77.2°F25.1°C 69.8°F21.0°C 78% 2.1 mph ENE3.4 kmh ENE 7.4 mph11.9 kmh 29.46 in997.6 mb 0.00 in0.0 mm 0.00 in0.0 mm 1.11 in28.2 mm
07:10 PM 77.2°F25.1°C 69.8°F21.0°C 78% 2.0 mph N3.2 kmh N 4.9 mph7.9 kmh 29.46 in997.6 mb 0.00 in0.0 mm 0.00 in0.0 mm 1.11 in28.2 mm
07:15 PM 77.2°F25.1°C 69.5°F20.8°C 77% 1.6 mph N2.6 kmh N 4.9 mph7.9 kmh 29.47 in998.0 mb 0.00 in0.0 mm 0.00 in0.0 mm 1.11 in28.2 mm
07:20 PM 77.2°F25.1°C 69.4°F20.8°C 77% 1.7 mph NE2.7 kmh NE 4.9 mph7.9 kmh 29.47 in998.0 mb 0.00 in0.0 mm 0.00 in0.0 mm 1.11 in28.2 mm
07:25 PM 77.2°F25.1°C 69.2°F20.7°C 76% 2.4 mph NE3.9 kmh NE 7.4 mph11.9 kmh 29.47 in998.0 mb 0.00 in0.0 mm 0.00 in0.0 mm 1.11 in28.2 mm
07:30 PM 77.0°F25.0°C 69.5°F20.8°C 78% 0.5 mph NNE0.8 kmh NNE 2.5 mph4.0 kmh 29.47 in998.0 mb 0.00 in0.0 mm 0.00 in0.0 mm 1.11 in28.2 mm
07:35 PM 77.0°F25.0°C 70.2°F21.2°C 80% 1.8 mph NNE2.9 kmh NNE 7.4 mph11.9 kmh 29.47 in998.0 mb 0.00 in0.0 mm 0.00 in0.0 mm 1.11 in28.2 mm
07:40 PM 77.0°F25.0°C 70.5°F21.4°C 80% Calm Calm -- 29.47 in998.0 mb 0.00 in0.0 mm 0.00 in0.0 mm 1.11 in28.2 mm
07:45 PM 76.5°F24.7°C 70.2°F21.2°C 81% 0.5 mph NNE0.8 kmh NNE 2.5 mph4.0 kmh 29.47 in998.0 mb 0.00 in0.0 mm 0.00 in0.0 mm 1.11 in28.2 mm
07:50 PM 76.5°F24.7°C 70.2°F21.2°C 81% 0.1 mph E0.2 kmh E 2.5 mph4.0 kmh 29.47 in998.0 mb 0.00 in0.0 mm 0.00 in0.0 mm 1.11 in28.2 mm
07:55 PM 76.5°F24.7°C 70.5°F21.4°C 82% 0.2 mph E0.3 kmh E 2.5 mph4.0 kmh 29.47 in998.0 mb 0.00 in0.0 mm 0.00 in0.0 mm 1.11 in28.2 mm
08:00 PM 76.5°F24.7°C 70.8°F21.6°C 83% Calm Calm -- 29.47 in998.0 mb 0.00 in0.0 mm 0.00 in0.0 mm 1.11 in28.2 mm
08:05 PM 76.3°F24.6°C 70.7°F21.5°C 83% 0.1 mph NNE0.2 kmh NNE 2.5 mph4.0 kmh 29.47 in998.0 mb 0.00 in0.0 mm 0.00 in0.0 mm 1.11 in28.2 mm
08:10 PM 76.3°F24.6°C 70.9°F21.6°C 84% 0.1 mph NE0.2 kmh NE 2.5 mph4.0 kmh 29.47 in998.0 mb 0.00 in0.0 mm 0.00 in0.0 mm 1.11 in28.2 mm
08:15 PM 76.3°F24.6°C 71.1°F21.7°C 84% 0.8 mph NE1.3 kmh NE 2.5 mph4.0 kmh 29.47 in998.0 mb 0.00 in0.0 mm 0.00 in0.0 mm 1.11 in28.2 mm
08:20 PM 76.1°F24.5°C 70.5°F21.4°C 83% 0.2 mph N0.3 kmh N 2.5 mph4.0 kmh 29.48 in998.3 mb 0.00 in0.0 mm 0.00 in0.0 mm 1.11 in28.2 mm
08:25 PM 76.4°F24.7°C 70.7°F21.5°C 83% 1.3 mph NE2.1 kmh NE 4.9 mph7.9 kmh 29.48 in998.3 mb 0.00 in0.0 mm 0.00 in0.0 mm 1.11 in28.2 mm
08:30 PM 76.3°F24.6°C 70.5°F21.4°C 82% 0.6 mph NNE1.0 kmh NNE 2.5 mph4.0 kmh 29.48 in998.3 mb 0.00 in0.0 mm 0.00 in0.0 mm 1.11 in28.2 mm
08:35 PM 76.3°F24.6°C 70.7°F21.5°C 83% 0.5 mph N0.8 kmh N 2.5 mph4.0 kmh 29.48 in998.3 mb 0.00 in0.0 mm 0.00 in0.0 mm 1.11 in28.2 mm
08:40 PM 76.2°F24.6°C 71.0°F21.7°C 84% Calm Calm -- 29.48 in998.3 mb 0.00 in0.0 mm 0.00 in0.0 mm 1.11 in28.2 mm
08:45 PM 75.7°F24.3°C 70.8°F21.6°C 85% 1.1 mph N1.8 kmh N 4.9 mph7.9 kmh 29.48 in998.3 mb 0.00 in0.0 mm 0.00 in0.0 mm 1.11 in28.2 mm
08:50 PM 75.6°F24.2°C 70.8°F21.6°C 85% 0.2 mph N0.3 kmh N 2.5 mph4.0 kmh 29.48 in998.3 mb 0.00 in0.0 mm 0.00 in0.0 mm 1.11 in28.2 mm
08:55 PM 75.6°F24.2°C 70.8°F21.6°C 85% 0.4 mph N0.6 kmh N 2.5 mph4.0 kmh 29.48 in998.3 mb 0.00 in0.0 mm 0.00 in0.0 mm 1.11 in28.2 mm
09:00 PM 75.6°F24.2°C 70.8°F21.6°C 85% 0.4 mph N0.6 kmh N 2.5 mph4.0 kmh 29.48 in998.3 mb 0.00 in0.0 mm 0.00 in0.0 mm 1.11 in28.2 mm
09:05 PM 75.4°F24.1°C 70.6°F21.4°C 85% 0.2 mph NE0.3 kmh NE 2.5 mph4.0 kmh 29.48 in998.3 mb 0.00 in0.0 mm 0.00 in0.0 mm 1.11 in28.2 mm
09:10 PM 75.3°F24.1°C 70.8°F21.6°C 86% 0.8 mph NE1.3 kmh NE 4.9 mph7.9 kmh 29.48 in998.3 mb 0.00 in0.0 mm 0.00 in0.0 mm 1.11 in28.2 mm
09:15 PM 75.2°F24.0°C 70.7°F21.5°C 86% Calm Calm -- 29.48 in998.3 mb 0.00 in0.0 mm 0.00 in0.0 mm 1.11 in28.2 mm
09:20 PM 75.2°F24.0°C 70.7°F21.5°C 86% 1.2 mph ENE1.9 kmh ENE 4.9 mph7.9 kmh 29.48 in998.3 mb 0.00 in0.0 mm 0.00 in0.0 mm 1.11 in28.2 mm
09:25 PM 75.4°F24.1°C 70.7°F21.5°C 85% 1.0 mph E1.6 kmh E 4.9 mph7.9 kmh 29.48 in998.3 mb 0.00 in0.0 mm 0.00 in0.0 mm 1.11 in28.2 mm
09:30 PM 75.4°F24.1°C 70.6°F21.4°C 85% 1.4 mph ENE2.3 kmh ENE 2.5 mph4.0 kmh 29.48 in998.3 mb 0.00 in0.0 mm 0.00 in0.0 mm 1.11 in28.2 mm
09:35 PM 75.4°F24.1°C 70.6°F21.4°C 85% 1.1 mph ENE1.8 kmh ENE 4.9 mph7.9 kmh 29.48 in998.3 mb 0.00 in0.0 mm 0.00 in0.0 mm 1.11 in28.2 mm
09:40 PM 75.5°F24.2°C 70.7°F21.5°C 85% 1.1 mph NE1.8 kmh NE 4.9 mph7.9 kmh 29.49 in998.6 mb 0.00 in0.0 mm 0.00 in0.0 mm 1.11 in28.2 mm
09:45 PM 75.7°F24.3°C 70.8°F21.6°C 85% 0.7 mph NNE1.1 kmh NNE 2.5 mph4.0 kmh 29.50 in999.0 mb 0.00 in0.0 mm 0.00 in0.0 mm 1.11 in28.2 mm
09:50 PM 75.7°F24.3°C 70.9°F21.6°C 85% 0.2 mph NW0.3 kmh NW 2.5 mph4.0 kmh 29.49 in998.6 mb 0.00 in0.0 mm 0.00 in0.0 mm 1.11 in28.2 mm
09:55 PM 75.7°F24.3°C 71.2°F21.8°C 86% 0.6 mph ENE1.0 kmh ENE 2.5 mph4.0 kmh 29.50 in999.0 mb 0.00 in0.0 mm 0.00 in0.0 mm 1.11 in28.2 mm
10:00 PM 75.7°F24.3°C 71.2°F21.8°C 86% 1.2 mph NE1.9 kmh NE 2.5 mph4.0 kmh 29.50 in999.0 mb 0.00 in0.0 mm 0.00 in0.0 mm 1.11 in28.2 mm
10:05 PM 75.7°F24.3°C 71.2°F21.8°C 86% 2.0 mph NE3.2 kmh NE 4.9 mph7.9 kmh 29.50 in999.0 mb 0.00 in0.0 mm 0.00 in0.0 mm 1.11 in28.2 mm
10:10 PM 75.6°F24.2°C 71.3°F21.8°C 86% 1.4 mph NE2.3 kmh NE 4.9 mph7.9 kmh 29.50 in999.0 mb 0.00 in0.0 mm 0.00 in0.0 mm 1.11 in28.2 mm
10:15 PM 75.6°F24.2°C 71.2°F21.8°C 86% 1.2 mph ENE1.9 kmh ENE 4.9 mph7.9 kmh 29.50 in999.0 mb 0.00 in0.0 mm 0.00 in0.0 mm 1.11 in28.2 mm
10:20 PM 75.6°F24.2°C 71.2°F21.8°C 86% 0.9 mph NE1.4 kmh NE 2.5 mph4.0 kmh 29.51 in999.3 mb 0.00 in0.0 mm 0.00 in0.0 mm 1.11 in28.2 mm
10:25 PM 75.6°F24.2°C 71.4°F21.9°C 87% 2.2 mph NE3.5 kmh NE 4.9 mph7.9 kmh 29.51 in999.3 mb 0.00 in0.0 mm 0.00 in0.0 mm 1.11 in28.2 mm
10:30 PM 75.4°F24.1°C 71.3°F21.8°C 87% 0.8 mph NE1.3 kmh NE 4.9 mph7.9 kmh 29.51 in999.3 mb 0.00 in0.0 mm 0.00 in0.0 mm 1.11 in28.2 mm
10:35 PM 75.4°F24.1°C 71.3°F21.8°C 87% 1.5 mph NE2.4 kmh NE 4.9 mph7.9 kmh 29.51 in999.3 mb 0.00 in0.0 mm 0.00 in0.0 mm 1.11 in28.2 mm
10:40 PM 75.4°F24.1°C 71.4°F21.9°C 88% 1.0 mph NE1.6 kmh NE 2.5 mph4.0 kmh 29.52 in999.7 mb 0.00 in0.0 mm 0.00 in0.0 mm 1.11 in28.2 mm
10:45 PM 75.4°F24.1°C 71.6°F22.0°C 88% 0.8 mph E1.3 kmh E 2.5 mph4.0 kmh 29.52 in999.7 mb 0.00 in0.0 mm 0.00 in0.0 mm 1.11 in28.2 mm
10:50 PM 75.4°F24.1°C 71.6°F22.0°C 88% 0.1 mph N0.2 kmh N 2.5 mph4.0 kmh 29.52 in999.7 mb 0.00 in0.0 mm 0.00 in0.0 mm 1.11 in28.2 mm
10:55 PM 75.4°F24.1°C 71.6°F22.0°C 88% Calm Calm 2.5 mph4.0 kmh 29.52 in999.7 mb 0.00 in0.0 mm 0.00 in0.0 mm 1.11 in28.2 mm
11:00 PM 75.4°F24.1°C 71.6°F22.0°C 88% 0.1 mph NNE0.2 kmh NNE 2.5 mph4.0 kmh 29.53 in1000.0 mb 0.00 in0.0 mm 0.00 in0.0 mm 1.11 in28.2 mm
11:05 PM 75.5°F24.2°C 71.7°F22.1°C 88% Calm Calm -- 29.53 in1000.0 mb 0.00 in0.0 mm 0.00 in0.0 mm 1.11 in28.2 mm
11:10 PM 75.6°F24.2°C 71.8°F22.1°C 88% Calm Calm 2.5 mph4.0 kmh 29.53 in1000.0 mb 0.00 in0.0 mm 0.00 in0.0 mm 1.11 in28.2 mm
11:15 PM 75.6°F24.2°C 71.9°F22.2°C 88% 1.2 mph N1.9 kmh N 4.9 mph7.9 kmh 29.53 in1000.0 mb 0.00 in0.0 mm 0.00 in0.0 mm 1.11 in28.2 mm
11:20 PM 75.5°F24.2°C 72.1°F22.3°C 89% 0.1 mph NW0.2 kmh NW 2.5 mph4.0 kmh 29.53 in1000.0 mb 0.00 in0.0 mm 0.00 in0.0 mm 1.11 in28.2 mm
11:25 PM 75.3°F24.1°C 72.3°F22.4°C 91% 0.6 mph NNE1.0 kmh NNE 2.5 mph4.0 kmh 29.53 in1000.0 mb 0.00 in0.0 mm 0.00 in0.0 mm 1.11 in28.2 mm
11:30 PM 75.0°F23.9°C 72.3°F22.4°C 91% Calm Calm -- 29.54 in1000.3 mb 0.00 in0.0 mm 0.00 in0.0 mm 1.11 in28.2 mm
11:35 PM 75.0°F23.9°C 72.5°F22.5°C 92% Calm Calm -- 29.54 in1000.3 mb 0.00 in0.0 mm 0.00 in0.0 mm 1.11 in28.2 mm
11:40 PM 74.9°F23.8°C 72.4°F22.4°C 92% Calm Calm 2.5 mph4.0 kmh 29.54 in1000.3 mb 0.00 in0.0 mm 0.00 in0.0 mm 1.11 in28.2 mm
11:45 PM 74.8°F23.8°C 72.3°F22.4°C 92% Calm Calm -- 29.54 in1000.3 mb 0.00 in0.0 mm 0.00 in0.0 mm 1.11 in28.2 mm
11:50 PM 74.6°F23.7°C 72.1°F22.3°C 92% Calm Calm -- 29.54 in1000.3 mb 0.00 in0.0 mm 0.00 in0.0 mm 1.11 in28.2 mm
11:55 PM 74.5°F23.6°C 72.2°F22.3°C 92% Calm Calm 2.5 mph4.0 kmh 29.54 in1000.3 mb 0.00 in0.0 mm 0.00 in0.0 mm 1.11 in28.2 mm